CO91 weather

Heli-Support Heliport
Fort Collins, Colorado, United States

Public forecast

Using degrees Fahrenheit for public forecast. Weather courtesy of forecast.io.

Closest aviation weather report (METAR) to Heli-Support Heliport

Closest report is Northern Colorado Regional Airport, 8.0 nm (14.8 km) S. Retrieved 2020/02/22 21:56 UTC (58 minutes ago):

KFNL 222156Z AUTO 31003KT 10SM CLR 11/M03 A2998 RMK AO2 SLP151 T01111028

Closest aviation forecast (TAF) to Heli-Support Heliport

Closest forecast is Cheyenne Regional Jerry Olson Field, 35.8 nm (66.3 km) NNE. Retrieved 2020/02/22 18:22 UTC (5 hours ago):

TAF KCYS 221720Z 2218/2318 28025G35KT P6SM SKC FM222100 29013G23KT P6SM SKC FM231000 34007KT P6SM VCSH BKN040